createdAt,value
2022-11-10T05:49:22.539Z,9.70
2022-11-10T05:52:07.966Z,9.70
2022-11-10T05:54:55.480Z,9.80
2022-11-10T05:57:48.773Z,9.70
2022-11-10T06:00:34.351Z,9.70
2022-11-10T06:03:20.364Z,9.70
2022-11-10T06:06:06.263Z,9.70
2022-11-10T06:08:52.042Z,9.60
2022-11-10T06:11:37.391Z,9.60
2022-11-10T06:14:23.031Z,9.70
2022-11-10T06:17:08.626Z,9.80
2022-11-10T06:19:54.047Z,9.70
2022-11-10T06:22:39.756Z,9.70
2022-11-10T06:25:24.983Z,9.80
2022-11-10T06:28:10.981Z,9.80
2022-11-10T06:30:58.720Z,9.80
2022-11-10T06:33:44.157Z,9.80
2022-11-10T06:36:29.691Z,9.80
2022-11-10T06:39:15.251Z,9.80
2022-11-10T06:42:00.792Z,9.80
2022-11-10T06:44:45.984Z,9.80
2022-11-10T06:47:31.982Z,9.80
2022-11-10T06:50:17.567Z,9.90
2022-11-10T06:53:02.997Z,9.90
2022-11-10T06:55:48.047Z,9.90
2022-11-10T06:58:33.717Z,9.90
2022-11-10T07:01:22.700Z,9.90
2022-11-10T07:04:24.070Z,10.00
2022-11-10T07:07:10.946Z,9.90
2022-11-10T07:09:57.372Z,10.00
2022-11-10T07:12:42.875Z,10.00
2022-11-10T07:15:28.438Z,10.00
2022-11-10T07:18:16.234Z,10.00
2022-11-10T07:21:05.962Z,10.10
2022-11-10T07:23:51.205Z,10.10
2022-11-10T07:26:36.533Z,10.10
2022-11-10T07:29:21.800Z,10.10
2022-11-10T07:32:07.235Z,10.20
2022-11-10T07:34:52.681Z,10.20
2022-11-10T07:37:38.237Z,10.20
2022-11-10T07:40:24.089Z,10.20
2022-11-10T07:43:09.724Z,10.20
2022-11-10T07:45:55.214Z,10.30
2022-11-10T07:48:40.560Z,10.30
2022-11-10T07:51:27.058Z,10.30
2022-11-10T07:54:12.799Z,10.30
2022-11-10T07:56:58.242Z,10.40
2022-11-10T07:59:43.573Z,10.40
2022-11-10T08:02:29.021Z,10.40
2022-11-10T08:05:14.505Z,10.40
2022-11-10T08:08:00.478Z,10.30
2022-11-10T08:10:45.802Z,10.40
2022-11-10T08:13:30.959Z,10.40
2022-11-10T08:16:16.428Z,10.40
2022-11-10T08:19:01.882Z,10.50
2022-11-10T08:21:47.399Z,10.50
2022-11-10T08:24:32.815Z,10.50
2022-11-10T08:27:18.034Z,10.40
2022-11-10T08:30:03.960Z,10.40
2022-11-10T08:32:49.461Z,10.40
2022-11-10T08:35:37.828Z,10.50
2022-11-10T08:38:24.367Z,10.50
2022-11-10T08:41:09.828Z,10.60
2022-11-10T08:43:55.127Z,10.60
2022-11-10T08:46:42.617Z,10.60
2022-11-10T08:49:28.155Z,10.60
2022-11-10T08:52:14.137Z,10.50
2022-11-10T08:54:59.768Z,10.60
2022-11-10T08:57:44.871Z,10.60
2022-11-10T09:00:32.600Z,10.70
2022-11-10T09:03:20.915Z,10.60
2022-11-10T09:06:06.559Z,10.60
2022-11-10T09:08:52.045Z,10.70
2022-11-10T09:11:37.455Z,10.70
2022-11-10T09:14:22.961Z,10.60
2022-11-10T09:17:08.474Z,10.60
2022-11-10T09:19:53.902Z,10.70
2022-11-10T09:22:39.995Z,10.70
2022-11-10T09:25:25.247Z,10.70
2022-11-10T09:28:14.577Z,10.70
2022-11-10T09:31:00.151Z,10.70
2022-11-10T09:33:45.282Z,10.80
2022-11-10T09:36:31.241Z,10.80
2022-11-10T09:39:16.678Z,10.80
2022-11-10T09:42:03.912Z,10.90
2022-11-10T09:44:56.404Z,10.90
2022-11-10T09:47:57.210Z,10.90
2022-11-10T09:51:04.260Z,10.90
2022-11-10T09:54:04.371Z,10.90
2022-11-10T09:56:53.439Z,10.90
2022-11-10T09:59:39.451Z,10.90
2022-11-10T10:02:37.469Z,11.00
2022-11-10T10:05:40.776Z,11.00
2022-11-10T10:08:38.877Z,11.00
2022-11-10T10:11:42.344Z,11.00
2022-11-10T10:15:04.631Z,10.90
2022-11-10T10:18:08.142Z,11.00
2022-11-10T10:21:24.343Z,11.00
2022-11-10T10:24:22.060Z,11.00
2022-11-10T10:27:12.395Z,11.20
2022-11-10T10:29:57.573Z,11.10
2022-11-10T10:32:43.108Z,11.20
2022-11-10T10:35:28.768Z,11.20
2022-11-10T10:38:31.224Z,11.30
2022-11-10T10:41:27.356Z,11.30
2022-11-10T10:44:18.537Z,11.20
2022-11-10T10:47:05.106Z,11.30
2022-11-10T10:49:50.431Z,11.40
2022-11-10T10:52:35.815Z,11.40
2022-11-10T10:55:20.896Z,11.40
2022-11-10T10:58:26.955Z,11.40
2022-11-10T11:01:15.948Z,11.40
2022-11-10T11:04:06.408Z,11.40
2022-11-10T11:07:03.898Z,11.50
2022-11-10T11:09:49.579Z,11.50
2022-11-10T11:12:34.990Z,11.40
2022-11-10T11:15:30.599Z,11.50
2022-11-10T11:18:18.055Z,11.60
2022-11-10T11:21:21.037Z,11.60
2022-11-10T11:24:31.234Z,11.50
2022-11-10T11:27:31.970Z,11.60
2022-11-10T11:30:22.116Z,11.70
2022-11-10T11:33:37.997Z,11.80
2022-11-10T11:36:32.331Z,11.80
2022-11-10T11:39:35.550Z,11.80
2022-11-10T11:42:43.541Z,11.80
2022-11-10T11:45:50.681Z,11.70
2022-11-10T11:49:07.179Z,11.70
2022-11-10T11:52:21.773Z,11.80
2022-11-10T11:55:28.358Z,11.80
2022-11-10T11:58:41.065Z,11.80
2022-11-10T12:39:18.401Z,12.40
